Skip Navigation Links
NOAA logo - Click to go to the NOAA homepage
NOAA's National Weather Service
Alaska Aviation Weather Unit
  NWS logo - Click to go to the NWS homepage
Left Navbar Graphic     21 AKDT = 05 GMT

   
NOAA is celebrating 200 years of science, service, and stewardship. Visit the NOAA 200th celebration Web site to learn more.
USA.gov is the U.S. Government's official Web portal to all Federal, state and local government Web resources and services.
Facebook
NWS on Facebook

Important Change Regarding the AAWU Web Presence

 

Over the last several months, the AAWU has been working to navigate its webpages to a nationally supported server. Security, as well as other needs, have necessitated the change.  In the process, we have made an effort to enhance the functionality of our website, as well as some of our products. As of June 27, 2017, aawu.arh.noaa.gov will be discontinued. The new AAWU web address is weather.gov/aawu. It is now live and will run in-parallel with the old site until it is discontinued. Please send any feedback or questions regarding the new webpages to nws.ar.aawu.webauthors@noaa.gov.  Thank you for your patience during this time of transition.
AAWU Home :: Display TAF Add Bookmark
TAF PACD 250117Z 2501/2524 15024G32KT P6SM -RA BKN050
      TEMPO 2501/2503 BKN025
     FM250300 15025G32KT P6SM -RA SCT015 BKN025
     FM250900 15025G35KT P6SM -RA BKN007 OVC015
     FM251800 14025G35KT 3SM -RA BR OVC007=

METAR PACD 242353Z 15024G32KT 10SM -RA OVC080 11/06 A3020= METAR PACD 250053Z AUTO 15021G30KT 10SM -RA FEW037 BKN050 OVC080 11/07 A3020= METAR PACD 250153Z AUTO 15021G30KT 10SM -RA FEW029 BKN060 OVC080 11/08 A3018= PACD 250242Z AUTO 15021G29KT 10SM BKN018 BKN023 OVC080 11/07 A3016 RMK AO2 PK WND 15030/0203 RAE04 P0000 T01060067 TSNO= METAR PACD 250253Z AUTO 15025G30KT 10SM BKN015 BKN021 OVC075 10/07 A3016= METAR PACD 250353Z AUTO 14019G27KT 10SM FEW010 OVC016 09/07 A3014= PACD 250413Z AUTO 15020G28KT 8SM -RA FEW008 BKN016 OVC022 09/08 A3012= PACD 250428Z AUTO 15024G30KT 9SM -RA SCT009 BKN014 OVC026 09/08 A3012= PACD 250436Z AUTO 15023G29KT 10SM FEW009 BKN016 OVC023 09/08 A3012= METAR PACD 250453Z AUTO 15021G30KT 10SM BKN014 OVC023 09/08 A3011= PACD 250508Z AUTO 15023G32KT 10SM FEW010 OVC015 09/07 A3011=
 Alaska TAF Map

NOAA's National Weather Service
Alaska Aviation Weather Unit
6930 Sand Lake Road
Anchorage, AK 99502-1845
Disclaimer
Credits
Glossary
Privacy Policy
About Us
Career Opportunities
Contact AAWU Internet Services Site last modified: April, 17th 2012